sensor_id;sensor_type;location;lat;lon;timestamp;P1;durP1;ratioP1;P2;durP2;ratioP2
51066;SDS011;37112;45.892;-123.962;2023-07-31T00:02:07;5.30;;;1.50;;
51066;SDS011;37112;45.892;-123.962;2023-07-31T00:04:21;4.10;;;1.50;;
51066;SDS011;37112;45.892;-123.962;2023-07-31T00:06:35;7.90;;;2.00;;
51066;SDS011;37112;45.892;-123.962;2023-07-31T00:08:49;7.70;;;2.00;;
51066;SDS011;37112;45.892;-123.962;2023-07-31T00:11:03;5.00;;;1.90;;
51066;SDS011;37112;45.892;-123.962;2023-07-31T00:13:17;8.70;;;2.00;;
51066;SDS011;37112;45.892;-123.962;2023-07-31T00:15:30;4.10;;;1.50;;
51066;SDS011;37112;45.892;-123.962;2023-07-31T00:17:44;4.00;;;1.50;;
51066;SDS011;37112;45.892;-123.962;2023-07-31T00:19:57;3.70;;;1.50;;
51066;SDS011;37112;45.892;-123.962;2023-07-31T00:22:11;5.90;;;1.60;;
51066;SDS011;37112;45.892;-123.962;2023-07-31T00:24:25;5.80;;;1.60;;
51066;SDS011;37112;45.892;-123.962;2023-07-31T00:26:39;9.40;;;1.70;;
51066;SDS011;37112;45.892;-123.962;2023-07-31T00:28:53;7.80;;;2.10;;
51066;SDS011;37112;45.892;-123.962;2023-07-31T00:31:07;5.80;;;1.60;;
51066;SDS011;37112;45.892;-123.962;2023-07-31T00:33:21;5.50;;;1.50;;
51066;SDS011;37112;45.892;-123.962;2023-07-31T00:35:34;8.40;;;2.20;;
51066;SDS011;37112;45.892;-123.962;2023-07-31T00:37:51;5.30;;;1.60;;
51066;SDS011;37112;45.892;-123.962;2023-07-31T00:40:06;5.60;;;2.30;;
51066;SDS011;37112;45.892;-123.962;2023-07-31T00:42:22;9.80;;;1.90;;
51066;SDS011;37112;45.892;-123.962;2023-07-31T00:44:36;6.10;;;1.50;;
51066;SDS011;37112;45.892;-123.962;2023-07-31T00:46:49;4.00;;;1.30;;
51066;SDS011;37112;45.892;-123.962;2023-07-31T00:49:04;10.60;;;1.70;;
51066;SDS011;37112;45.892;-123.962;2023-07-31T00:51:19;8.90;;;1.80;;
51066;SDS011;37112;45.892;-123.962;2023-07-31T00:53:32;2.80;;;1.30;;
51066;SDS011;37112;45.892;-123.962;2023-07-31T00:55:49;9.30;;;1.70;;
51066;SDS011;37112;45.892;-123.962;2023-07-31T00:58:02;5.20;;;1.90;;
51066;SDS011;37112;45.892;-123.962;2023-07-31T01:00:20;4.40;;;1.60;;
51066;SDS011;37112;45.892;-123.962;2023-07-31T01:02:33;4.80;;;1.20;;
51066;SDS011;37112;45.892;-123.962;2023-07-31T01:04:47;5.90;;;1.40;;
51066;SDS011;37112;45.892;-123.962;2023-07-31T01:07:01;3.70;;;1.00;;
51066;SDS011;37112;45.892;-123.962;2023-07-31T01:09:26;4.70;;;1.30;;
51066;SDS011;37112;45.892;-123.962;2023-07-31T01:11:48;11.80;;;2.80;;
51066;SDS011;37112;45.892;-123.962;2023-07-31T01:14:07;7.70;;;1.50;;
51066;SDS011;37112;45.892;-123.962;2023-07-31T01:16:21;2.50;;;1.10;;
51066;SDS011;37112;45.892;-123.962;2023-07-31T01:18:35;4.80;;;1.10;;
51066;SDS011;37112;45.892;-123.962;2023-07-31T01:20:51;4.60;;;1.40;;
51066;SDS011;37112;45.892;-123.962;2023-07-31T01:23:35;6.30;;;1.30;;
51066;SDS011;37112;45.892;-123.962;2023-07-31T01:28:23;4.50;;;1.60;;
51066;SDS011;37112;45.892;-123.962;2023-07-31T01:30:43;5.30;;;1.70;;
51066;SDS011;37112;45.892;-123.962;2023-07-31T01:32:59;8.80;;;1.30;;
51066;SDS011;37112;45.892;-123.962;2023-07-31T01:35:16;5.20;;;1.30;;
51066;SDS011;37112;45.892;-123.962;2023-07-31T01:37:30;6.10;;;1.00;;
51066;SDS011;37112;45.892;-123.962;2023-07-31T01:39:45;5.60;;;1.30;;
51066;SDS011;37112;45.892;-123.962;2023-07-31T01:41:59;5.80;;;1.70;;
51066;SDS011;37112;45.892;-123.962;2023-07-31T01:44:13;5.10;;;1.20;;
51066;SDS011;37112;45.892;-123.962;2023-07-31T01:46:27;5.30;;;1.40;;
51066;SDS011;37112;45.892;-123.962;2023-07-31T01:48:41;5.20;;;1.80;;
51066;SDS011;37112;45.892;-123.962;2023-07-31T01:50:54;6.50;;;1.50;;
51066;SDS011;37112;45.892;-123.962;2023-07-31T01:53:11;8.00;;;1.20;;
51066;SDS011;37112;45.892;-123.962;2023-07-31T01:55:24;9.10;;;1.70;;
51066;SDS011;37112;45.892;-123.962;2023-07-31T01:57:38;6.70;;;1.70;;
51066;SDS011;37112;45.892;-123.962;2023-07-31T01:59:51;4.10;;;1.10;;
51066;SDS011;37112;45.892;-123.962;2023-07-31T02:02:04;2.50;;;0.90;;
51066;SDS011;37112;45.892;-123.962;2023-07-31T02:04:18;6.60;;;0.90;;
51066;SDS011;37112;45.892;-123.962;2023-07-31T02:06:32;11.40;;;1.20;;
51066;SDS011;37112;45.892;-123.962;2023-07-31T02:08:46;4.30;;;1.20;;
51066;SDS011;37112;45.892;-123.962;2023-07-31T02:11:00;7.00;;;1.30;;
51066;SDS011;37112;45.892;-123.962;2023-07-31T02:13:12;7.50;;;1.50;;
51066;SDS011;37112;45.892;-123.962;2023-07-31T02:15:26;5.50;;;1.40;;
51066;SDS011;37112;45.892;-123.962;2023-07-31T02:17:39;5.80;;;1.20;;
51066;SDS011;37112;45.892;-123.962;2023-07-31T02:19:53;7.80;;;1.00;;
51066;SDS011;37112;45.892;-123.962;2023-07-31T02:22:08;4.20;;;1.10;;
51066;SDS011;37112;45.892;-123.962;2023-07-31T02:24:22;4.40;;;1.00;;
51066;SDS011;37112;45.892;-123.962;2023-07-31T02:26:37;2.80;;;0.80;;
51066;SDS011;37112;45.892;-123.962;2023-07-31T02:28:50;6.30;;;1.20;;
51066;SDS011;37112;45.892;-123.962;2023-07-31T02:31:04;6.40;;;1.60;;
51066;SDS011;37112;45.892;-123.962;2023-07-31T02:33:17;3.00;;;1.10;;
51066;SDS011;37112;45.892;-123.962;2023-07-31T02:35:31;6.00;;;1.50;;
51066;SDS011;37112;45.892;-123.962;2023-07-31T02:37:44;5.10;;;1.40;;
51066;SDS011;37112;45.892;-123.962;2023-07-31T02:39:58;5.40;;;1.20;;
51066;SDS011;37112;45.892;-123.962;2023-07-31T02:42:12;4.40;;;1.20;;
51066;SDS011;37112;45.892;-123.962;2023-07-31T02:44:25;3.70;;;1.40;;
51066;SDS011;37112;45.892;-123.962;2023-07-31T02:46:39;6.90;;;1.50;;
51066;SDS011;37112;45.892;-123.962;2023-07-31T02:48:53;6.30;;;1.00;;
51066;SDS011;37112;45.892;-123.962;2023-07-31T02:51:07;4.80;;;1.10;;
51066;SDS011;37112;45.892;-123.962;2023-07-31T02:53:21;5.50;;;2.10;;
51066;SDS011;37112;45.892;-123.962;2023-07-31T02:55:34;2.30;;;1.00;;
51066;SDS011;37112;45.892;-123.962;2023-07-31T02:57:48;4.80;;;1.30;;
51066;SDS011;37112;45.892;-123.962;2023-07-31T03:00:02;5.30;;;1.00;;
51066;SDS011;37112;45.892;-123.962;2023-07-31T03:02:17;7.30;;;1.60;;
51066;SDS011;37112;45.892;-123.962;2023-07-31T03:04:30;3.50;;;0.90;;
51066;SDS011;37112;45.892;-123.962;2023-07-31T03:06:44;4.10;;;0.90;;
51066;SDS011;37112;45.892;-123.962;2023-07-31T03:08:56;7.30;;;1.20;;
51066;SDS011;37112;45.892;-123.962;2023-07-31T03:11:10;4.00;;;1.00;;
51066;SDS011;37112;45.892;-123.962;2023-07-31T03:13:23;3.00;;;1.20;;
51066;SDS011;37112;45.892;-123.962;2023-07-31T03:15:36;13.40;;;1.50;;
51066;SDS011;37112;45.892;-123.962;2023-07-31T03:17:52;5.30;;;1.40;;
51066;SDS011;37112;45.892;-123.962;2023-07-31T03:20:05;6.90;;;1.90;;
51066;SDS011;37112;45.892;-123.962;2023-07-31T03:22:23;5.80;;;1.50;;
51066;SDS011;37112;45.892;-123.962;2023-07-31T03:24:37;7.00;;;1.90;;
51066;SDS011;37112;45.892;-123.962;2023-07-31T03:26:50;5.00;;;1.60;;
51066;SDS011;37112;45.892;-123.962;2023-07-31T03:29:03;5.60;;;1.60;;
51066;SDS011;37112;45.892;-123.962;2023-07-31T03:31:16;5.30;;;1.50;;
51066;SDS011;37112;45.892;-123.962;2023-07-31T03:33:30;6.40;;;1.30;;
51066;SDS011;37112;45.892;-123.962;2023-07-31T03:35:43;2.40;;;1.50;;
51066;SDS011;37112;45.892;-123.962;2023-07-31T03:37:56;1.40;;;0.90;;
51066;SDS011;37112;45.892;-123.962;2023-07-31T03:40:11;2.90;;;0.90;;
51066;SDS011;37112;45.892;-123.962;2023-07-31T03:42:24;1.70;;;0.90;;
51066;SDS011;37112;45.892;-123.962;2023-07-31T03:44:38;5.60;;;1.60;;
51066;SDS011;37112;45.892;-123.962;2023-07-31T03:46:51;4.30;;;1.20;;
51066;SDS011;37112;45.892;-123.962;2023-07-31T03:49:06;1.70;;;1.00;;
51066;SDS011;37112;45.892;-123.962;2023-07-31T03:51:21;2.40;;;1.10;;
51066;SDS011;37112;45.892;-123.962;2023-07-31T03:53:34;3.80;;;1.10;;
51066;SDS011;37112;45.892;-123.962;2023-07-31T03:55:47;4.50;;;1.10;;
51066;SDS011;37112;45.892;-123.962;2023-07-31T03:58:01;4.30;;;1.10;;
51066;SDS011;37112;45.892;-123.962;2023-07-31T04:00:15;3.60;;;1.40;;
51066;SDS011;37112;45.892;-123.962;2023-07-31T04:02:31;2.60;;;1.20;;
51066;SDS011;37112;45.892;-123.962;2023-07-31T04:04:44;3.40;;;1.60;;
51066;SDS011;37112;45.892;-123.962;2023-07-31T04:06:59;4.10;;;1.40;;
51066;SDS011;37112;45.892;-123.962;2023-07-31T04:09:15;2.40;;;1.20;;
51066;SDS011;37112;45.892;-123.962;2023-07-31T04:11:28;3.50;;;1.30;;
51066;SDS011;37112;45.892;-123.962;2023-07-31T04:13:42;2.90;;;0.90;;
51066;SDS011;37112;45.892;-123.962;2023-07-31T04:15:56;3.90;;;1.50;;
51066;SDS011;37112;45.892;-123.962;2023-07-31T04:18:09;2.40;;;1.50;;
51066;SDS011;37112;45.892;-123.962;2023-07-31T04:20:23;3.30;;;1.50;;
51066;SDS011;37112;45.892;-123.962;2023-07-31T04:22:37;3.40;;;1.70;;
51066;SDS011;37112;45.892;-123.962;2023-07-31T04:24:51;3.80;;;2.50;;
51066;SDS011;37112;45.892;-123.962;2023-07-31T04:27:06;6.80;;;3.40;;
51066;SDS011;37112;45.892;-123.962;2023-07-31T04:29:20;6.70;;;3.30;;
51066;SDS011;37112;45.892;-123.962;2023-07-31T04:31:35;5.40;;;3.50;;
51066;SDS011;37112;45.892;-123.962;2023-07-31T04:33:50;4.10;;;3.60;;
51066;SDS011;37112;45.892;-123.962;2023-07-31T04:36:08;6.80;;;4.60;;
51066;SDS011;37112;45.892;-123.962;2023-07-31T04:38:22;7.70;;;4.90;;
51066;SDS011;37112;45.892;-123.962;2023-07-31T04:40:36;6.60;;;4.70;;
51066;SDS011;37112;45.892;-123.962;2023-07-31T04:42:51;4.50;;;4.00;;
51066;SDS011;37112;45.892;-123.962;2023-07-31T04:45:06;5.70;;;3.90;;
51066;SDS011;37112;45.892;-123.962;2023-07-31T04:47:19;3.80;;;3.50;;
51066;SDS011;37112;45.892;-123.962;2023-07-31T04:49:33;5.10;;;3.60;;
51066;SDS011;37112;45.892;-123.962;2023-07-31T04:51:50;3.00;;;2.60;;
51066;SDS011;37112;45.892;-123.962;2023-07-31T04:54:03;2.30;;;1.90;;
51066;SDS011;37112;45.892;-123.962;2023-07-31T04:56:19;3.40;;;2.50;;
51066;SDS011;37112;45.892;-123.962;2023-07-31T04:58:33;2.60;;;2.00;;
51066;SDS011;37112;45.892;-123.962;2023-07-31T05:00:47;3.10;;;2.00;;
51066;SDS011;37112;45.892;-123.962;2023-07-31T05:03:01;3.80;;;2.00;;
51066;SDS011;37112;45.892;-123.962;2023-07-31T05:05:15;2.90;;;1.70;;
51066;SDS011;37112;45.892;-123.962;2023-07-31T05:07:29;3.70;;;1.90;;
51066;SDS011;37112;45.892;-123.962;2023-07-31T05:09:43;3.60;;;1.80;;
51066;SDS011;37112;45.892;-123.962;2023-07-31T05:12:10;5.00;;;2.10;;
51066;SDS011;37112;45.892;-123.962;2023-07-31T05:14:27;3.90;;;1.90;;
51066;SDS011;37112;45.892;-123.962;2023-07-31T05:16:46;3.20;;;1.90;;
51066;SDS011;37112;45.892;-123.962;2023-07-31T05:19:00;2.50;;;1.80;;
51066;SDS011;37112;45.892;-123.962;2023-07-31T05:21:18;2.30;;;1.60;;
51066;SDS011;37112;45.892;-123.962;2023-07-31T05:23:35;4.90;;;1.80;;
51066;SDS011;37112;45.892;-123.962;2023-07-31T05:26:01;2.30;;;1.40;;
51066;SDS011;37112;45.892;-123.962;2023-07-31T05:28:20;2.70;;;1.50;;
51066;SDS011;37112;45.892;-123.962;2023-07-31T05:30:36;3.70;;;1.40;;
51066;SDS011;37112;45.892;-123.962;2023-07-31T05:32:53;4.50;;;1.20;;
51066;SDS011;37112;45.892;-123.962;2023-07-31T05:35:09;3.70;;;1.60;;
51066;SDS011;37112;45.892;-123.962;2023-07-31T05:37:26;3.50;;;1.30;;
51066;SDS011;37112;45.892;-123.962;2023-07-31T05:39:41;2.90;;;1.40;;
51066;SDS011;37112;45.892;-123.962;2023-07-31T05:41:56;4.00;;;1.40;;
51066;SDS011;37112;45.892;-123.962;2023-07-31T05:44:10;2.70;;;1.20;;
51066;SDS011;37112;45.892;-123.962;2023-07-31T05:46:23;3.30;;;1.30;;
51066;SDS011;37112;45.892;-123.962;2023-07-31T05:48:36;2.50;;;1.30;;
51066;SDS011;37112;45.892;-123.962;2023-07-31T05:50:49;5.20;;;1.40;;
51066;SDS011;37112;45.892;-123.962;2023-07-31T05:53:04;4.70;;;1.70;;
51066;SDS011;37112;45.892;-123.962;2023-07-31T05:55:22;3.40;;;1.80;;
51066;SDS011;37112;45.892;-123.962;2023-07-31T05:57:36;2.90;;;1.70;;
51066;SDS011;37112;45.892;-123.962;2023-07-31T05:59:53;2.60;;;1.50;;
51066;SDS011;37112;45.892;-123.962;2023-07-31T06:02:12;5.40;;;1.30;;
51066;SDS011;37112;45.892;-123.962;2023-07-31T06:04:29;3.20;;;1.50;;
51066;SDS011;37112;45.892;-123.962;2023-07-31T06:06:45;2.80;;;1.60;;
51066;SDS011;37112;45.892;-123.962;2023-07-31T06:09:00;2.30;;;1.30;;
51066;SDS011;37112;45.892;-123.962;2023-07-31T06:11:16;2.70;;;1.40;;
51066;SDS011;37112;45.892;-123.962;2023-07-31T06:13:32;3.80;;;1.70;;
51066;SDS011;37112;45.892;-123.962;2023-07-31T06:15:50;2.50;;;1.50;;
51066;SDS011;37112;45.892;-123.962;2023-07-31T06:18:04;3.40;;;1.30;;
51066;SDS011;37112;45.892;-123.962;2023-07-31T06:20:19;2.70;;;1.30;;
51066;SDS011;37112;45.892;-123.962;2023-07-31T06:22:35;4.70;;;1.60;;
51066;SDS011;37112;45.892;-123.962;2023-07-31T06:24:49;2.90;;;1.50;;
51066;SDS011;37112;45.892;-123.962;2023-07-31T06:27:04;3.10;;;1.30;;
51066;SDS011;37112;45.892;-123.962;2023-07-31T06:29:23;3.30;;;1.50;;
51066;SDS011;37112;45.892;-123.962;2023-07-31T06:31:40;2.70;;;1.50;;
51066;SDS011;37112;45.892;-123.962;2023-07-31T06:33:56;4.10;;;1.70;;
51066;SDS011;37112;45.892;-123.962;2023-07-31T06:36:33;3.40;;;1.50;;
51066;SDS011;37112;45.892;-123.962;2023-07-31T06:38:46;3.90;;;1.50;;
51066;SDS011;37112;45.892;-123.962;2023-07-31T06:41:00;5.00;;;1.70;;
51066;SDS011;37112;45.892;-123.962;2023-07-31T06:43:13;2.10;;;1.60;;
51066;SDS011;37112;45.892;-123.962;2023-07-31T06:45:27;5.40;;;1.40;;
51066;SDS011;37112;45.892;-123.962;2023-07-31T06:47:53;2.70;;;1.30;;
51066;SDS011;37112;45.892;-123.962;2023-07-31T06:50:09;4.40;;;1.40;;
51066;SDS011;37112;45.892;-123.962;2023-07-31T06:52:23;2.70;;;1.30;;
51066;SDS011;37112;45.892;-123.962;2023-07-31T06:54:36;4.50;;;1.50;;
51066;SDS011;37112;45.892;-123.962;2023-07-31T06:56:49;3.50;;;1.50;;
51066;SDS011;37112;45.892;-123.962;2023-07-31T06:59:02;5.80;;;1.60;;
51066;SDS011;37112;45.892;-123.962;2023-07-31T07:01:15;2.70;;;1.60;;
51066;SDS011;37112;45.892;-123.962;2023-07-31T07:03:29;3.90;;;1.60;;
51066;SDS011;37112;45.892;-123.962;2023-07-31T07:05:42;2.90;;;1.40;;
51066;SDS011;37112;45.892;-123.962;2023-07-31T07:07:55;3.70;;;1.50;;
51066;SDS011;37112;45.892;-123.962;2023-07-31T07:10:09;3.00;;;1.20;;
51066;SDS011;37112;45.892;-123.962;2023-07-31T07:12:23;2.10;;;1.30;;
51066;SDS011;37112;45.892;-123.962;2023-07-31T07:14:36;3.70;;;1.60;;
51066;SDS011;37112;45.892;-123.962;2023-07-31T07:16:52;4.10;;;1.60;;
51066;SDS011;37112;45.892;-123.962;2023-07-31T07:19:05;7.60;;;1.50;;
51066;SDS011;37112;45.892;-123.962;2023-07-31T07:21:19;2.40;;;1.40;;
51066;SDS011;37112;45.892;-123.962;2023-07-31T07:23:40;3.20;;;1.30;;
51066;SDS011;37112;45.892;-123.962;2023-07-31T07:25:59;2.50;;;1.60;;
51066;SDS011;37112;45.892;-123.962;2023-07-31T07:28:13;3.70;;;1.90;;
51066;SDS011;37112;45.892;-123.962;2023-07-31T07:30:26;3.20;;;1.70;;
51066;SDS011;37112;45.892;-123.962;2023-07-31T07:32:40;5.00;;;1.60;;
51066;SDS011;37112;45.892;-123.962;2023-07-31T07:34:54;3.50;;;1.70;;
51066;SDS011;37112;45.892;-123.962;2023-07-31T07:37:08;3.40;;;1.80;;
51066;SDS011;37112;45.892;-123.962;2023-07-31T07:39:22;4.60;;;1.50;;
51066;SDS011;37112;45.892;-123.962;2023-07-31T07:41:35;4.60;;;1.70;;
51066;SDS011;37112;45.892;-123.962;2023-07-31T07:43:48;4.00;;;1.40;;
51066;SDS011;37112;45.892;-123.962;2023-07-31T07:46:02;3.10;;;1.50;;
51066;SDS011;37112;45.892;-123.962;2023-07-31T07:48:15;4.60;;;1.50;;
51066;SDS011;37112;45.892;-123.962;2023-07-31T07:50:28;2.50;;;1.40;;
51066;SDS011;37112;45.892;-123.962;2023-07-31T07:52:41;3.80;;;1.70;;
51066;SDS011;37112;45.892;-123.962;2023-07-31T07:54:55;1.80;;;1.10;;
51066;SDS011;37112;45.892;-123.962;2023-07-31T07:57:08;2.40;;;1.20;;
51066;SDS011;37112;45.892;-123.962;2023-07-31T07:59:21;4.00;;;1.20;;
51066;SDS011;37112;45.892;-123.962;2023-07-31T08:01:34;2.30;;;1.30;;
51066;SDS011;37112;45.892;-123.962;2023-07-31T08:03:48;2.70;;;1.40;;
51066;SDS011;37112;45.892;-123.962;2023-07-31T08:06:01;4.20;;;1.70;;
51066;SDS011;37112;45.892;-123.962;2023-07-31T08:08:16;1.70;;;1.20;;
51066;SDS011;37112;45.892;-123.962;2023-07-31T08:10:29;2.20;;;1.60;;
51066;SDS011;37112;45.892;-123.962;2023-07-31T08:12:42;5.60;;;1.20;;
51066;SDS011;37112;45.892;-123.962;2023-07-31T08:14:56;5.90;;;1.90;;
51066;SDS011;37112;45.892;-123.962;2023-07-31T08:17:09;3.10;;;1.60;;
51066;SDS011;37112;45.892;-123.962;2023-07-31T08:19:22;4.50;;;1.70;;
51066;SDS011;37112;45.892;-123.962;2023-07-31T08:21:35;7.40;;;2.20;;
51066;SDS011;37112;45.892;-123.962;2023-07-31T08:23:51;2.00;;;1.30;;
51066;SDS011;37112;45.892;-123.962;2023-07-31T08:26:04;5.30;;;1.70;;
51066;SDS011;37112;45.892;-123.962;2023-07-31T08:28:17;5.10;;;1.70;;
51066;SDS011;37112;45.892;-123.962;2023-07-31T08:32:43;4.20;;;1.50;;
51066;SDS011;37112;45.892;-123.962;2023-07-31T08:34:56;3.50;;;1.60;;
51066;SDS011;37112;45.892;-123.962;2023-07-31T08:37:10;3.50;;;1.90;;
51066;SDS011;37112;45.892;-123.962;2023-07-31T08:39:24;2.90;;;1.60;;
51066;SDS011;37112;45.892;-123.962;2023-07-31T08:41:39;4.40;;;1.80;;
51066;SDS011;37112;45.892;-123.962;2023-07-31T08:43:52;3.50;;;1.30;;
51066;SDS011;37112;45.892;-123.962;2023-07-31T08:46:07;5.30;;;1.70;;
51066;SDS011;37112;45.892;-123.962;2023-07-31T08:48:22;3.30;;;1.50;;
51066;SDS011;37112;45.892;-123.962;2023-07-31T08:50:38;2.20;;;1.40;;
51066;SDS011;37112;45.892;-123.962;2023-07-31T08:52:52;3.80;;;1.70;;
51066;SDS011;37112;45.892;-123.962;2023-07-31T08:55:07;5.00;;;1.60;;
51066;SDS011;37112;45.892;-123.962;2023-07-31T08:57:21;4.20;;;1.90;;
51066;SDS011;37112;45.892;-123.962;2023-07-31T08:59:42;2.40;;;1.70;;
51066;SDS011;37112;45.892;-123.962;2023-07-31T09:01:56;2.80;;;1.80;;
51066;SDS011;37112;45.892;-123.962;2023-07-31T09:04:18;2.30;;;1.70;;
51066;SDS011;37112;45.892;-123.962;2023-07-31T09:06:54;3.30;;;1.60;;
51066;SDS011;37112;45.892;-123.962;2023-07-31T09:09:20;7.00;;;1.40;;
51066;SDS011;37112;45.892;-123.962;2023-07-31T09:11:45;3.80;;;1.50;;
51066;SDS011;37112;45.892;-123.962;2023-07-31T09:14:11;3.10;;;1.50;;
51066;SDS011;37112;45.892;-123.962;2023-07-31T09:16:30;5.20;;;1.90;;
51066;SDS011;37112;45.892;-123.962;2023-07-31T09:21:17;1.80;;;1.30;;
51066;SDS011;37112;45.892;-123.962;2023-07-31T09:23:45;5.20;;;1.20;;
51066;SDS011;37112;45.892;-123.962;2023-07-31T09:26:08;3.00;;;1.60;;
51066;SDS011;37112;45.892;-123.962;2023-07-31T09:28:38;1.90;;;1.30;;
51066;SDS011;37112;45.892;-123.962;2023-07-31T09:30:52;3.50;;;1.60;;
51066;SDS011;37112;45.892;-123.962;2023-07-31T09:33:12;4.60;;;1.50;;
51066;SDS011;37112;45.892;-123.962;2023-07-31T09:35:30;2.10;;;1.00;;
51066;SDS011;37112;45.892;-123.962;2023-07-31T09:37:55;3.80;;;1.70;;
51066;SDS011;37112;45.892;-123.962;2023-07-31T09:40:31;5.00;;;1.60;;
51066;SDS011;37112;45.892;-123.962;2023-07-31T09:42:51;4.60;;;1.90;;
51066;SDS011;37112;45.892;-123.962;2023-07-31T09:45:09;2.60;;;1.80;;
51066;SDS011;37112;45.892;-123.962;2023-07-31T09:47:33;4.70;;;1.90;;
51066;SDS011;37112;45.892;-123.962;2023-07-31T09:49:50;2.90;;;1.40;;
51066;SDS011;37112;45.892;-123.962;2023-07-31T09:52:13;4.90;;;1.80;;
51066;SDS011;37112;45.892;-123.962;2023-07-31T09:54:30;2.40;;;1.40;;
51066;SDS011;37112;45.892;-123.962;2023-07-31T09:56:48;4.00;;;1.30;;
51066;SDS011;37112;45.892;-123.962;2023-07-31T09:59:05;3.50;;;1.40;;
51066;SDS011;37112;45.892;-123.962;2023-07-31T10:01:28;2.70;;;1.40;;
51066;SDS011;37112;45.892;-123.962;2023-07-31T10:03:47;4.80;;;2.10;;
51066;SDS011;37112;45.892;-123.962;2023-07-31T10:06:01;2.90;;;1.20;;
51066;SDS011;37112;45.892;-123.962;2023-07-31T10:08:18;2.60;;;1.50;;
51066;SDS011;37112;45.892;-123.962;2023-07-31T10:10:46;2.40;;;1.70;;
51066;SDS011;37112;45.892;-123.962;2023-07-31T10:13:01;2.30;;;1.30;;
51066;SDS011;37112;45.892;-123.962;2023-07-31T10:15:24;3.20;;;1.70;;
51066;SDS011;37112;45.892;-123.962;2023-07-31T10:17:51;3.40;;;1.40;;
51066;SDS011;37112;45.892;-123.962;2023-07-31T10:20:18;3.20;;;1.50;;
51066;SDS011;37112;45.892;-123.962;2023-07-31T10:22:40;2.40;;;1.40;;
51066;SDS011;37112;45.892;-123.962;2023-07-31T10:25:00;2.20;;;1.50;;
51066;SDS011;37112;45.892;-123.962;2023-07-31T10:27:14;2.80;;;1.40;;
51066;SDS011;37112;45.892;-123.962;2023-07-31T10:29:31;1.80;;;1.30;;
51066;SDS011;37112;45.892;-123.962;2023-07-31T10:31:45;2.30;;;1.70;;
51066;SDS011;37112;45.892;-123.962;2023-07-31T10:34:01;3.50;;;1.30;;
51066;SDS011;37112;45.892;-123.962;2023-07-31T10:36:15;3.10;;;1.30;;
51066;SDS011;37112;45.892;-123.962;2023-07-31T10:38:30;5.00;;;1.70;;
51066;SDS011;37112;45.892;-123.962;2023-07-31T10:40:43;3.40;;;1.60;;
51066;SDS011;37112;45.892;-123.962;2023-07-31T10:42:56;3.00;;;1.50;;
51066;SDS011;37112;45.892;-123.962;2023-07-31T10:45:10;3.90;;;1.60;;
51066;SDS011;37112;45.892;-123.962;2023-07-31T10:47:33;2.90;;;1.70;;
51066;SDS011;37112;45.892;-123.962;2023-07-31T10:49:52;2.30;;;1.60;;
51066;SDS011;37112;45.892;-123.962;2023-07-31T10:52:21;3.50;;;1.30;;
51066;SDS011;37112;45.892;-123.962;2023-07-31T10:54:35;3.70;;;1.70;;
51066;SDS011;37112;45.892;-123.962;2023-07-31T10:56:48;6.60;;;1.60;;
51066;SDS011;37112;45.892;-123.962;2023-07-31T10:59:02;4.50;;;1.20;;
51066;SDS011;37112;45.892;-123.962;2023-07-31T11:01:16;4.50;;;1.60;;
51066;SDS011;37112;45.892;-123.962;2023-07-31T11:03:40;2.30;;;1.50;;
51066;SDS011;37112;45.892;-123.962;2023-07-31T11:05:59;3.70;;;1.50;;
51066;SDS011;37112;45.892;-123.962;2023-07-31T11:08:14;4.60;;;1.40;;
51066;SDS011;37112;45.892;-123.962;2023-07-31T11:10:29;4.00;;;1.60;;
51066;SDS011;37112;45.892;-123.962;2023-07-31T11:12:42;3.10;;;1.80;;
51066;SDS011;37112;45.892;-123.962;2023-07-31T11:14:56;13.20;;;2.00;;
51066;SDS011;37112;45.892;-123.962;2023-07-31T11:17:11;4.30;;;1.80;;
51066;SDS011;37112;45.892;-123.962;2023-07-31T11:19:25;2.60;;;1.70;;
51066;SDS011;37112;45.892;-123.962;2023-07-31T11:21:39;5.00;;;1.60;;
51066;SDS011;37112;45.892;-123.962;2023-07-31T11:23:53;2.50;;;1.80;;
51066;SDS011;37112;45.892;-123.962;2023-07-31T11:26:08;4.50;;;1.70;;
51066;SDS011;37112;45.892;-123.962;2023-07-31T11:28:22;2.90;;;1.80;;
51066;SDS011;37112;45.892;-123.962;2023-07-31T11:30:35;2.10;;;1.30;;
51066;SDS011;37112;45.892;-123.962;2023-07-31T11:32:49;4.10;;;1.90;;
51066;SDS011;37112;45.892;-123.962;2023-07-31T11:35:02;2.00;;;1.20;;
51066;SDS011;37112;45.892;-123.962;2023-07-31T11:37:16;2.60;;;1.60;;
51066;SDS011;37112;45.892;-123.962;2023-07-31T11:39:29;2.90;;;1.50;;
51066;SDS011;37112;45.892;-123.962;2023-07-31T11:41:42;4.40;;;1.50;;
51066;SDS011;37112;45.892;-123.962;2023-07-31T11:44:01;2.80;;;1.20;;
51066;SDS011;37112;45.892;-123.962;2023-07-31T11:46:33;2.90;;;1.40;;
51066;SDS011;37112;45.892;-123.962;2023-07-31T11:48:49;3.90;;;1.40;;
51066;SDS011;37112;45.892;-123.962;2023-07-31T11:51:09;1.80;;;1.40;;
51066;SDS011;37112;45.892;-123.962;2023-07-31T11:53:25;2.70;;;1.60;;
51066;SDS011;37112;45.892;-123.962;2023-07-31T11:55:41;3.50;;;1.40;;
51066;SDS011;37112;45.892;-123.962;2023-07-31T11:57:58;2.90;;;1.40;;
51066;SDS011;37112;45.892;-123.962;2023-07-31T12:00:15;3.00;;;1.30;;
51066;SDS011;37112;45.892;-123.962;2023-07-31T12:02:28;2.70;;;1.40;;
51066;SDS011;37112;45.892;-123.962;2023-07-31T12:04:43;2.30;;;1.20;;
51066;SDS011;37112;45.892;-123.962;2023-07-31T12:06:59;3.50;;;1.40;;
51066;SDS011;37112;45.892;-123.962;2023-07-31T12:09:13;3.10;;;1.40;;
51066;SDS011;37112;45.892;-123.962;2023-07-31T12:11:27;3.00;;;1.30;;
51066;SDS011;37112;45.892;-123.962;2023-07-31T12:13:41;1.50;;;1.10;;
51066;SDS011;37112;45.892;-123.962;2023-07-31T12:16:03;1.90;;;1.20;;
51066;SDS011;37112;45.892;-123.962;2023-07-31T12:18:25;2.70;;;1.40;;
51066;SDS011;37112;45.892;-123.962;2023-07-31T12:20:45;2.10;;;1.00;;
51066;SDS011;37112;45.892;-123.962;2023-07-31T12:23:07;1.60;;;1.20;;
51066;SDS011;37112;45.892;-123.962;2023-07-31T12:25:59;3.20;;;1.30;;
51066;SDS011;37112;45.892;-123.962;2023-07-31T12:28:38;2.20;;;1.30;;
51066;SDS011;37112;45.892;-123.962;2023-07-31T12:33:34;3.10;;;0.90;;
51066;SDS011;37112;45.892;-123.962;2023-07-31T12:36:06;4.00;;;1.30;;
51066;SDS011;37112;45.892;-123.962;2023-07-31T12:40:50;2.30;;;1.00;;
51066;SDS011;37112;45.892;-123.962;2023-07-31T12:43:13;1.50;;;0.90;;
51066;SDS011;37112;45.892;-123.962;2023-07-31T12:45:30;1.80;;;1.20;;
51066;SDS011;37112;45.892;-123.962;2023-07-31T12:47:43;2.60;;;1.20;;
51066;SDS011;37112;45.892;-123.962;2023-07-31T12:49:58;1.60;;;0.90;;
51066;SDS011;37112;45.892;-123.962;2023-07-31T12:52:13;3.50;;;1.20;;
51066;SDS011;37112;45.892;-123.962;2023-07-31T12:54:29;3.80;;;1.20;;
51066;SDS011;37112;45.892;-123.962;2023-07-31T12:56:47;4.70;;;1.60;;
51066;SDS011;37112;45.892;-123.962;2023-07-31T12:59:04;2.20;;;1.10;;
51066;SDS011;37112;45.892;-123.962;2023-07-31T13:01:18;2.00;;;1.10;;
51066;SDS011;37112;45.892;-123.962;2023-07-31T13:03:31;3.90;;;1.60;;
51066;SDS011;37112;45.892;-123.962;2023-07-31T13:05:48;5.00;;;1.60;;
51066;SDS011;37112;45.892;-123.962;2023-07-31T13:08:05;2.40;;;1.60;;
51066;SDS011;37112;45.892;-123.962;2023-07-31T13:10:22;5.20;;;1.20;;
51066;SDS011;37112;45.892;-123.962;2023-07-31T13:12:42;4.70;;;1.10;;
51066;SDS011;37112;45.892;-123.962;2023-07-31T13:14:55;2.20;;;1.70;;
51066;SDS011;37112;45.892;-123.962;2023-07-31T13:17:09;1.90;;;1.30;;